| time (UTC) | temp F | wind direction | speed knots | gust knots | rain 1hr in | rain 24hr in | rain mn in | humidity % | barometer mb |
| 20260502231803 | 51 | 0 | 0.0 | 0.0 | 0.00 | 0.00 | 0.00 | 87 | 1015.3 |
| 20260502230903 | 51 | 0 | 0.0 | 0.0 | 0.00 | 0.00 | 0.00 | 87 | 1015.4 |
| 20260502230003 | 51 | 0 | 0.0 | 0.0 | 0.00 | 0.00 | 0.00 | 86 | 1015.4 |
| 20260502225403 | 52 | 0 | 0.0 | 0.0 | 0.00 | 0.00 | 0.00 | 86 | 1015.4 |
| 20260502224503 | 52 | 0 | 0.0 | 0.0 | 0.00 | 0.00 | 0.00 | 86 | 1015.5 |
| 20260502223603 | 52 | 0 | 0.0 | 0.0 | 0.00 | 0.00 | 0.00 | 86 | 1015.4 |
| 20260502222703 | 52 | 0 | 0.0 | 0.0 | 0.00 | 0.00 | 0.00 | 85 | 1015.5 |
| 20260502221803 | 52 | 0 | 0.0 | 0.0 | 0.00 | 0.00 | 0.00 | 84 | 1015.6 |
| 20260502221122 | 52 | 0 | 0.0 | 0.0 | 0.00 | 0.00 | 0.00 | 84 | 1015.5 |
| 20260502220003 | 53 | 0 | 0.0 | 0.0 | 0.00 | 0.00 | 0.00 | 83 | 1015.5 |
| 20260502215403 | 53 | 0 | 0.0 | 0.0 | 0.00 | 0.00 | 0.00 | 83 | 1015.6 |
| 20260502212703 | 54 | 0 | 0.0 | 0.0 | 0.00 | 0.00 | 0.00 | 81 | 1015.5 |
| 20260502211803 | 54 | 0 | 0.0 | 0.0 | 0.00 | 0.00 | 0.00 | 81 | 1015.6 |
| 20260502210903 | 55 | 0 | 0.0 | 0.0 | 0.00 | 0.00 | 0.00 | 80 | 1015.5 |
| 20260502210003 | 55 | 0 | 0.0 | 0.0 | 0.00 | 0.00 | 0.00 | 79 | 1015.6 |
| 20260502205403 | 55 | 0 | 0.0 | 0.0 | 0.00 | 0.00 | 0.00 | 79 | 1015.5 |
| 20260502204503 | 56 | 0 | 0.0 | 0.0 | 0.00 | 0.00 | 0.00 | 78 | 1015.6 |
| 20260502203603 | 56 | 0 | 0.0 | 0.0 | 0.00 | 0.00 | 0.00 | 78 | 1015.6 |
| 20260502202703 | 57 | 0 | 0.0 | 0.0 | 0.00 | 0.00 | 0.00 | 77 | 1015.6 |
| 20260502201803 | 57 | 0 | 0.0 | 0.0 | 0.00 | 0.00 | 0.00 | 76 | 1015.6 |
| 20260502200903 | 57 | 0 | 0.0 | 0.0 | 0.00 | 0.00 | 0.00 | 75 | 1015.6 |
| 20260502200220 | 58 | 0 | 0.0 | 0.0 | 0.00 | 0.00 | 0.00 | 75 | 1015.6 |
| 20260502195404 | 58 | 198 | 0.0 | 0.9 | 0.00 | 0.00 | 0.00 | 74 | 1015.5 |
| 20260502194717 | 59 | 0 | 0.0 | 0.0 | 0.00 | 0.00 | 0.00 | 74 | 1015.6 |
| 20260502192703 | 60 | 0 | 0.0 | 0.0 | 0.00 | 0.00 | 0.00 | 71 | 1015.5 |
| 20260502191804 | 61 | 198 | 0.0 | 0.9 | 0.00 | 0.00 | 0.00 | 71 | 1015.4 |
| 20260502190903 | 62 | 198 | 0.0 | 0.9 | 0.00 | 0.00 | 0.00 | 70 | 1015.3 |
| 20260502190003 | 63 | 0 | 0.0 | 0.0 | 0.00 | 0.00 | 0.00 | 69 | 1015.3 |
| 20260502185403 | 64 | 0 | 0.0 | 0.0 | 0.00 | 0.00 | 0.00 | 67 | 1015.3 |
| 20260502184503 | 65 | 0 | 0.0 | 0.0 | 0.00 | 0.00 | 0.00 | 66 | 1015.3 |
| 20260502183603 | 66 | 0 | 0.0 | 0.0 | 0.00 | 0.00 | 0.00 | 64 | 1015.3 |
| 20260502182703 | 66 | 0 | 0.0 | 0.0 | 0.00 | 0.00 | 0.00 | 62 | 1015.2 |
| 20260502182019 | 67 | 0 | 0.0 | 0.0 | 0.00 | 0.00 | 0.00 | 62 | 1015.3 |
| 20260502180903 | 68 | 0 | 0.0 | 0.0 | 0.00 | 0.00 | 0.00 | 62 | 1015.3 |
| 20260502170217 | 73 | 0 | 0.0 | 0.0 | 0.00 | 0.00 | 0.00 | 53 | 1015.3 |
| 20260502163603 | 74 | 216 | 0.9 | 3.5 | 0.00 | 0.00 | 0.00 | 49 | 1015.6 |
| 20260502162919 | 74 | 207 | 0.0 | 2.6 | 0.00 | 0.00 | 0.00 | 50 | 1015.5 |
| 20260502161803 | 74 | 191 | 0.9 | 3.5 | 0.00 | 0.00 | 0.00 | 51 | 1015.7 |
| 20260502160903 | 75 | 219 | 0.9 | 4.3 | 0.00 | 0.00 | 0.00 | 52 | 1015.8 |
| 20260502151803 | 78 | 216 | 1.7 | 7.0 | 0.00 | 0.00 | 0.00 | 52 | 1016.1 |
| 20260502151117 | 79 | 201 | 1.7 | 7.0 | 0.00 | 0.00 | 0.00 | 49 | 1016.2 |
| 20260502123603 | 81 | 208 | 0.9 | 2.6 | 0.00 | 0.00 | 0.00 | 50 | 1018.2 |
| 20260502122703 | 80 | 210 | 0.9 | 4.3 | 0.00 | 0.00 | 0.00 | 47 | 1018.4 |
| 20260502121803 | 80 | 252 | 0.9 | 3.5 | 0.00 | 0.00 | 0.00 | 46 | 1018.5 |
| 20260502120903 | 80 | 203 | 1.7 | 6.1 | 0.00 | 0.00 | 0.00 | 48 | 1018.6 |
| 20260502120219 | 80 | 194 | 0.9 | 4.3 | 0.00 | 0.00 | 0.00 | 49 | 1018.7 |
| 20260502115403 | 79 | 190 | 1.7 | 4.3 | 0.00 | 0.00 | 0.00 | 46 | 1018.8 |
| 20260502113603 | 79 | 217 | 0.9 | 7.0 | 0.00 | 0.00 | 0.00 | 48 | 1019.1 |
| 20260502112703 | 78 | 236 | 0.9 | 7.8 | 0.00 | 0.00 | 0.00 | 50 | 1019.2 |
| 20260502111803 | 78 | 263 | 0.9 | 3.5 | 0.00 | 0.00 | 0.00 | 50 | 1019.4 |
| 20260502110903 | 77 | 244 | 0.9 | 3.5 | 0.00 | 0.00 | 0.00 | 54 | 1019.4 |
| 20260502110003 | 77 | 236 | 0.0 | 3.5 | 0.00 | 0.00 | 0.00 | 53 | 1019.5 |
| 20260502105403 | 76 | 263 | 0.9 | 5.2 | 0.00 | 0.00 | 0.00 | 54 | 1019.6 |
| 20260502104503 | 76 | 242 | 0.9 | 5.2 | 0.00 | 0.00 | 0.00 | 55 | 1019.7 |
| 20260502103603 | 75 | 244 | 0.0 | 3.5 | 0.00 | 0.00 | 0.00 | 56 | 1019.8 |
| 20260502102916 | 74 | 251 | 0.9 | 2.6 | 0.00 | 0.00 | 0.00 | 54 | 1020.0 |
| 20260502102016 | 74 | 243 | 0.0 | 3.5 | 0.00 | 0.00 | 0.00 | 56 | 1020.1 |
| 20260502100903 | 72 | 270 | 0.0 | 2.6 | 0.00 | 0.00 | 0.00 | 58 | 1020.2 |
| 20260502100219 | 71 | 262 | 0.0 | 2.6 | 0.00 | 0.00 | 0.00 | 60 | 1020.3 |
| 20260502090903 | 63 | 0 | 0.0 | 0.0 | 0.00 | 0.00 | 0.00 | 73 | 1020.9 |
| 20260502070903 | 53 | 216 | 0.0 | 0.9 | 0.00 | 0.00 | 0.00 | 78 | 1021.4 |
| 20260502070003 | 52 | 209 | 0.0 | 1.7 | 0.00 | 0.00 | 0.00 | 77 | 1021.6 |
| 20260502065403 | 52 | 209 | 0.9 | 1.7 | 0.00 | 0.00 | 0.00 | 78 | 1021.6 |
| 20260502064503 | 52 | 0 | 0.0 | 0.0 | 0.00 | 0.00 | 0.00 | 79 | 1021.5 |
| 20260502063820 | 51 | 208 | 0.0 | 1.7 | 0.00 | 0.00 | 0.00 | 79 | 1021.6 |
| 20260502062703 | 50 | 207 | 0.0 | 1.7 | 0.00 | 0.00 | 0.00 | 82 | 1021.7 |
| 20260502061803 | 49 | 206 | 0.0 | 0.9 | 0.00 | 0.00 | 0.00 | 85 | 1021.8 |
| 20260502060903 | 47 | 206 | 0.0 | 1.7 | 0.00 | 0.00 | 0.00 | 86 | 1021.9 |
| 20260502060004 | 46 | 206 | 0.0 | 0.9 | 0.00 | 0.00 | 0.00 | 86 | 1022.1 |
| 20260502055617 | 46 | 206 | 0.0 | 0.9 | 0.00 | 0.00 | 0.00 | 87 | 1022.1 |
| 20260502054716 | 45 | 0 | 0.0 | 0.0 | 0.00 | 0.00 | 0.00 | 89 | 1022.3 |
| 20260502053604 | 44 | 206 | 0.0 | 1.7 | 0.00 | 0.00 | 0.00 | 90 | 1022.5 |
| 20260502052703 | 43 | 206 | 0.0 | 1.7 | 0.00 | 0.00 | 0.00 | 93 | 1022.4 |
| 20260502051803 | 42 | 206 | 0.0 | 0.9 | 0.00 | 0.00 | 0.00 | 94 | 1022.1 |
| 20260502050903 | 41 | 206 | 0.0 | 0.9 | 0.00 | 0.00 | 0.00 | 93 | 1022.0 |
| 20260502050003 | 40 | 0 | 0.0 | 0.0 | 0.00 | 0.00 | 0.00 | 93 | 1022.0 |
| 20260502045403 | 40 | 0 | 0.0 | 0.0 | 0.00 | 0.00 | 0.00 | 92 | 1021.9 |
| 20260502044503 | 40 | 0 | 0.0 | 0.0 | 0.00 | 0.00 | 0.00 | 92 | 1022.0 |
| 20260502043603 | 40 | 0 | 0.0 | 0.0 | 0.00 | 0.00 | 0.00 | 91 | 1021.8 |
| 20260502042703 | 39 | 0 | 0.0 | 0.0 | 0.00 | 0.00 | 0.00 | 91 | 1021.9 |
| 20260502042018 | 39 | 206 | 0.0 | 0.9 | 0.00 | 0.00 | 0.00 | 91 | 1021.8 |
| 20260502040903 | 39 | 206 | 0.0 | 0.9 | 0.00 | 0.00 | 0.00 | 91 | 1021.9 |
| 20260502040003 | 40 | 0 | 0.0 | 0.0 | 0.00 | 0.00 | 0.00 | 90 | 1021.7 |
| 20260502035403 | 40 | 0 | 0.0 | 0.0 | 0.00 | 0.00 | 0.00 | 91 | 1021.7 |
| 20260502034719 | 40 | 0 | 0.0 | 0.0 | 0.00 | 0.00 | 0.00 | 91 | 1021.8 |
| 20260502033603 | 40 | 206 | 0.0 | 0.9 | 0.00 | 0.00 | 0.00 | 90 | 1022.2 |
| 20260502032703 | 40 | 166 | 0.0 | 0.9 | 0.00 | 0.00 | 0.00 | 91 | 1022.2 |
| 20260502031803 | 40 | 190 | 0.0 | 0.9 | 0.00 | 0.00 | 0.00 | 90 | 1022.4 |
| 20260502030903 | 40 | 0 | 0.0 | 0.0 | 0.00 | 0.00 | 0.00 | 90 | 1022.0 |
| 20260502030003 | 40 | 0 | 0.0 | 0.0 | 0.00 | 0.00 | 0.00 | 89 | 1021.9 |
| 20260502025403 | 40 | 0 | 0.0 | 0.0 | 0.00 | 0.00 | 0.00 | 89 | 1021.9 |
| 20260502024503 | 40 | 0 | 0.0 | 0.0 | 0.00 | 0.00 | 0.00 | 89 | 1022.0 |
| 20260502023818 | 40 | 0 | 0.0 | 0.0 | 0.00 | 0.00 | 0.00 | 89 | 1022.1 |
| 20260502022703 | 40 | 0 | 0.0 | 0.0 | 0.00 | 0.00 | 0.00 | 89 | 1022.1 |
| 20260502021803 | 40 | 0 | 0.0 | 0.0 | 0.00 | 0.00 | 0.00 | 89 | 1022.0 |
| 20260502020903 | 40 | 0 | 0.0 | 0.0 | 0.00 | 0.00 | 0.00 | 88 | 1022.1 |
| 20260502020003 | 40 | 0 | 0.0 | 0.0 | 0.00 | 0.00 | 0.00 | 87 | 1022.2 |
| 20260502015403 | 40 | 0 | 0.0 | 0.0 | 0.00 | 0.00 | 0.00 | 87 | 1022.2 |
| 20260502014503 | 40 | 0 | 0.0 | 0.0 | 0.00 | 0.00 | 0.00 | 87 | 1022.2 |
| 20260502013603 | 41 | 0 | 0.0 | 0.0 | 0.00 | 0.00 | 0.00 | 87 | 1022.2 |
| 20260502012703 | 41 | 0 | 0.0 | 0.0 | 0.00 | 0.00 | 0.00 | 87 | 1022.2 |
| 20260502011803 | 41 | 0 | 0.0 | 0.0 | 0.00 | 0.00 | 0.00 | 86 | 1022.2 |
| 20260502010903 | 41 | 0 | 0.0 | 0.0 | 0.00 | 0.00 | 0.00 | 85 | 1022.3 |
| 20260502010003 | 42 | 0 | 0.0 | 0.0 | 0.00 | 0.00 | 0.00 | 85 | 1022.4 |
| 20260502005403 | 42 | 0 | 0.0 | 0.0 | 0.00 | 0.00 | 0.00 | 85 | 1022.4 |
| 20260502002917 | 42 | 0 | 0.0 | 0.0 | 0.00 | 0.00 | 0.00 | 84 | 1022.4 |
| 20260501233603 | 43 | 0 | 0.0 | 0.0 | 0.00 | 0.00 | 0.00 | 81 | 1022.6 |
| 20260501232703 | 44 | 0 | 0.0 | 0.0 | 0.00 | 0.00 | 0.00 | 80 | 1022.8 |